Time;durP1;ratioP1;P1;durP2;ratioP2;P2;SDS_P1;SDS_P2;PMS_P1;PMS_P2;Temp;Humidity;BMP_temperature;BMP_pressure;BME280_temperature;BME280_humidity;BME280_pressure;Samples;Min_cycle;Max_cycle;Signal;HPM_P1;HPM_P2
2022/01/08 16:10:47;;;;;;;3.70;1.80;;;14.00;76.20;;;;;;2299689;62;30348;-71
2022/01/08 16:13:15;;;;;;;2.83;1.75;;;14.10;75.70;;;;;;2290965;62;30307;-72
2022/01/08 16:15:41;;;;;;;2.17;1.80;;;14.20;76.70;;;;;;2291357;62;30135;-70
2022/01/08 16:18:07;;;;;;;1.95;1.77;;;14.40;77.30;;;;;;2291132;62;30191;-70
2022/01/08 16:20:35;;;;;;;1.70;1.60;;;14.50;77.80;;;;;;2290842;62;30181;-70
2022/01/08 16:23:02;;;;;;;4.40;2.10;;;14.60;78.30;;;;;;2291314;62;30170;-71
2022/01/08 16:25:28;;;;;;;2.38;1.67;;;14.60;78.50;;;;;;2291130;62;30071;-71
2022/01/08 16:27:54;;;;;;;2.00;1.70;;;14.70;78.80;;;;;;2291025;62;30296;-70
2022/01/08 16:30:26;;;;;;;3.03;2.00;;;14.70;79.00;;;;;;2287781;62;30249;-70
2022/01/08 16:32:52;;;;;;;5.43;1.50;;;14.70;79.00;;;;;;2278119;62;30036;-70
2022/01/08 16:35:18;;;;;;;2.75;1.75;;;14.80;79.10;;;;;;2290371;62;30266;-70
2022/01/08 16:37:44;;;;;;;3.78;1.80;;;14.80;79.10;;;;;;2291039;62;30250;-69
2022/01/08 16:40:13;;;;;;;2.40;1.80;;;14.90;79.10;;;;;;2291089;62;30317;-70
2022/01/08 16:42:39;;;;;;;3.17;1.98;;;14.90;78.90;;;;;;2290792;62;30170;-70
2022/01/08 16:45:05;;;;;;;1.50;1.40;;;14.90;78.90;;;;;;2292163;62;30203;-70
2022/01/08 16:47:32;;;;;;;3.50;1.73;;;15.00;78.90;;;;;;2291303;62;31053;-70
2022/01/08 16:49:57;;;;;;;1.90;1.80;;;15.00;78.80;;;;;;2290588;62;30156;-70
2022/01/08 16:52:23;;;;;;;2.22;1.75;;;15.00;78.60;;;;;;2291080;62;30173;-70
2022/01/08 16:54:53;;;;;;;2.80;1.73;;;15.10;78.50;;;;;;2290998;62;29898;-69
2022/01/08 16:57:20;;;;;;;2.00;1.60;;;15.10;78.40;;;;;;2291057;62;30115;-71
2022/01/08 16:59:46;;;;;;;3.05;1.50;;;15.10;78.20;;;;;;2291024;62;30413;-70
2022/01/08 17:02:12;;;;;;;4.60;1.70;;;15.10;78.20;;;;;;2291029;62;30225;-70
2022/01/08 17:04:37;;;;;;;1.75;1.50;;;15.10;78.00;;;;;;2290813;62;30232;-70
2022/01/08 17:07:04;;;;;;;1.48;1.38;;;15.10;77.90;;;;;;2290863;62;32134;-71
2022/01/08 17:09:30;;;;;;;3.83;1.40;;;15.20;77.80;;;;;;2290634;62;30180;-70
2022/01/08 17:11:57;;;;;;;3.33;1.52;;;15.20;77.70;;;;;;2290912;62;30234;-70
2022/01/08 17:14:29;;;;;;;1.48;1.30;;;15.20;77.50;;;;;;2290967;62;30085;-69
2022/01/08 17:16:55;;;;;;;1.42;1.30;;;15.20;77.20;;;;;;2290465;62;32210;-70
2022/01/08 17:19:21;;;;;;;25.98;2.60;;;15.20;77.20;;;;;;2290679;62;30549;-69
2022/01/08 17:21:47;;;;;;;1.98;1.30;;;15.20;77.00;;;;;;2278177;62;30443;-71
2022/01/08 17:24:13;;;;;;;1.27;1.08;;;15.20;76.90;;;;;;2277214;62;30125;-72
2022/01/08 17:26:39;;;;;;;1.70;1.42;;;15.30;76.90;;;;;;2284636;62;30122;-71
2022/01/08 17:29:05;;;;;;;1.48;1.17;;;15.30;76.70;;;;;;2285224;62;30272;-71
2022/01/08 17:31:31;;;;;;;2.45;1.27;;;15.30;76.70;;;;;;2277906;62;30585;-71
2022/01/08 17:33:57;;;;;;;1.23;1.08;;;15.40;76.60;;;;;;2278017;62;30366;-71
2022/01/08 17:36:23;;;;;;;1.02;1.02;;;15.40;76.50;;;;;;2284657;62;30270;-71
2022/01/08 17:38:50;;;;;;;1.70;0.95;;;15.40;76.40;;;;;;2277624;62;30437;-71
2022/01/08 17:41:17;;;;;;;1.00;1.00;;;15.50;76.30;;;;;;2285385;62;30197;-70
2022/01/08 17:43:43;;;;;;;1.20;1.10;;;15.50;76.20;;;;;;2285433;62;30193;-69
2022/01/08 17:46:08;;;;;;;2.38;1.00;;;15.50;76.00;;;;;;2269226;62;30965;-69
2022/01/08 17:48:34;;;;;;;1.50;1.02;;;15.60;76.00;;;;;;2276982;62;30181;-69
2022/01/08 17:51:00;;;;;;;2.28;1.10;;;15.60;75.70;;;;;;2277070;62;30216;-70
2022/01/08 17:53:26;;;;;;;3.38;1.00;;;15.60;75.60;;;;;;2269523;62;30262;-70
2022/01/08 17:55:55;;;;;;;2.53;0.82;;;15.70;75.50;;;;;;2276910;62;32344;-70
2022/01/08 17:58:21;;;;;;;2.72;1.02;;;15.70;76.10;;;;;;2276763;62;30861;-71
2022/01/08 18:00:47;;;;;;;3.45;0.90;;;15.80;75.30;;;;;;2277069;62;30336;-73
2022/01/08 18:03:13;;;;;;;2.22;1.15;;;15.80;75.20;;;;;;2276998;62;30211;-72
2022/01/08 18:05:39;;;;;;;0.93;0.82;;;15.90;75.30;;;;;;2276759;62;30174;-71
2022/01/08 18:08:04;;;;;;;3.85;1.13;;;16.00;75.10;;;;;;2269566;62;30106;-72
2022/01/08 18:10:30;;;;;;;0.95;0.90;;;16.00;74.90;;;;;;2276854;62;30152;-71
2022/01/08 18:12:56;;;;;;;1.45;0.93;;;16.10;74.80;;;;;;2269308;62;30077;-72
2022/01/08 18:15:24;;;;;;;1.23;0.77;;;16.10;74.80;;;;;;2276755;62;30229;-72
2022/01/08 18:17:50;;;;;;;2.05;0.57;;;16.20;74.60;;;;;;2267567;62;31113;-72
2022/01/08 18:20:21;;;;;;;1.63;0.77;;;16.20;74.30;;;;;;2262215;62;30095;-72
2022/01/08 18:22:47;;;;;;;1.08;0.88;;;16.20;74.00;;;;;;2269552;62;30240;-73
2022/01/08 18:25:14;;;;;;;2.05;0.75;;;16.20;74.10;;;;;;2276536;62;30830;-70
2022/01/08 18:27:43;;;;;;;12.73;1.90;;;16.30;74.00;;;;;;2276539;62;31590;-70
2022/01/08 18:30:10;;;;;;;2.92;0.68;;;16.30;73.70;;;;;;2276927;62;30341;-72
2022/01/08 18:32:39;;;;;;;0.70;0.63;;;16.30;73.70;;;;;;2269207;62;30089;-71
2022/01/08 18:35:06;;;;;;;0.85;0.85;;;16.30;73.50;;;;;;2269085;62;30894;-72
2022/01/08 18:37:33;;;;;;;0.90;0.70;;;16.40;73.50;;;;;;2262852;62;30810;-72
2022/01/08 18:39:59;;;;;;;1.42;0.50;;;16.50;73.50;;;;;;2276669;62;30374;-72
2022/01/08 18:42:24;;;;;;;1.42;1.05;;;16.60;73.40;;;;;;2269156;62;30185;-72
2022/01/08 18:44:50;;;;;;;2.50;0.77;;;16.60;73.30;;;;;;2276328;62;30249;-71
2022/01/08 18:47:16;;;;;;;2.53;0.90;;;16.70;73.20;;;;;;2269357;62;30471;-71
2022/01/08 18:49:42;;;;;;;0.65;0.60;;;16.80;73.00;;;;;;2276379;62;30073;-71
2022/01/08 18:52:09;;;;;;;2.25;0.88;;;16.80;72.90;;;;;;2276625;62;30117;-71
2022/01/08 18:54:41;;;;;;;1.55;0.73;;;16.90;72.80;;;;;;2269099;62;30111;-70
2022/01/08 18:57:11;;;;;;;1.23;0.77;;;16.90;72.70;;;;;;2276744;62;30707;-71
2022/01/08 18:59:37;;;;;;;1.10;1.00;;;16.90;72.60;;;;;;2269216;62;30749;-71
2022/01/08 19:02:03;;;;;;;2.55;0.68;;;17.00;72.70;;;;;;2268808;62;30358;-71
2022/01/08 19:04:29;;;;;;;4.82;1.08;;;17.00;72.40;;;;;;2276427;62;31173;-71
2022/01/08 19:06:55;;;;;;;1.77;0.65;;;17.10;72.20;;;;;;2276484;62;30311;-71
2022/01/08 19:09:21;;;;;;;3.00;1.00;;;17.10;72.10;;;;;;2268740;62;30109;-71
2022/01/08 19:11:46;;;;;;;2.78;1.13;;;17.10;72.00;;;;;;2276531;62;30461;-71
2022/01/08 19:14:13;;;;;;;2.92;0.60;;;17.10;72.00;;;;;;2276164;62;30329;-71
2022/01/08 19:16:43;;;;;;;1.95;1.00;;;17.10;72.00;;;;;;2262527;62;30136;-71
2022/01/08 19:19:09;;;;;;;1.23;0.80;;;17.10;71.90;;;;;;2276362;62;30202;-71
2022/01/08 19:21:35;;;;;;;2.78;0.98;;;17.10;71.80;;;;;;2276385;62;30226;-71
2022/01/08 19:24:01;;;;;;;0.90;0.90;;;17.00;71.80;;;;;;2262090;62;30863;-71
2022/01/08 19:26:30;;;;;;;0.98;0.75;;;17.00;71.70;;;;;;2269033;62;30227;-71
2022/01/08 19:28:57;;;;;;;0.80;0.70;;;17.00;71.60;;;;;;2276451;62;30306;-71
2022/01/08 19:31:23;;;;;;;4.72;0.90;;;17.00;71.70;;;;;;2276199;62;30289;-71
2022/01/08 19:33:49;;;;;;;0.82;0.70;;;17.00;71.70;;;;;;2276141;62;30946;-71
2022/01/08 19:36:17;;;;;;;1.48;1.00;;;17.00;71.70;;;;;;2269046;62;30335;-72
2022/01/08 19:38:43;;;;;;;0.90;0.90;;;17.00;71.60;;;;;;2276170;62;30150;-81
2022/01/08 19:41:09;;;;;;;2.65;1.02;;;17.00;71.90;;;;;;2276209;62;30482;-80
2022/01/08 19:43:35;;;;;;;1.58;0.90;;;17.00;71.50;;;;;;2276136;62;30741;-81
2022/01/08 19:46:01;;;;;;;1.55;1.00;;;17.00;71.20;;;;;;2268805;62;30357;-79
2022/01/08 19:48:29;;;;;;;3.15;0.90;;;17.10;70.90;;;;;;2276211;62;30237;-79
2022/01/08 19:50:55;;;;;;;1.95;0.88;;;17.30;70.60;;;;;;2268698;62;30621;-78
2022/01/08 19:53:21;;;;;;;1.73;0.80;;;17.30;70.40;;;;;;2262060;62;30733;-78
2022/01/08 19:55:47;;;;;;;1.33;0.80;;;17.40;70.20;;;;;;2275988;62;30237;-82
2022/01/08 19:58:13;;;;;;;0.85;0.70;;;17.50;70.10;;;;;;2275801;62;30578;-82
2022/01/08 20:00:39;;;;;;;0.60;0.60;;;17.50;70.00;;;;;;2268592;62;30322;-82
2022/01/08 20:03:05;;;;;;;1.17;0.70;;;17.50;70.00;;;;;;2268640;62;30131;-84
2022/01/08 20:05:31;;;;;;;0.82;0.82;;;17.50;69.90;;;;;;2268739;62;30501;-83
2022/01/08 20:07:57;;;;;;;0.60;0.60;;;17.50;69.80;;;;;;2276171;62;30040;-84
2022/01/08 20:10:27;;;;;;;0.63;0.63;;;17.50;69.90;;;;;;2276025;62;30103;-83
2022/01/08 20:12:53;;;;;;;1.90;0.80;;;17.50;69.80;;;;;;2276268;62;30107;-83
2022/01/08 20:15:19;;;;;;;0.70;0.70;;;17.60;69.90;;;;;;2276288;62;30204;-82
2022/01/08 20:17:46;;;;;;;0.60;0.60;;;17.60;69.80;;;;;;2276185;62;30334;-84
2022/01/08 20:20:12;;;;;;;0.85;0.80;;;17.50;69.80;;;;;;2275947;62;30360;-82
2022/01/08 20:22:39;;;;;;;1.25;0.60;;;17.50;69.70;;;;;;2275827;62;30963;-81
2022/01/08 20:25:06;;;;;;;0.57;0.57;;;17.60;69.80;;;;;;2262021;62;30226;-82
2022/01/08 20:27:32;;;;;;;2.17;0.90;;;17.60;69.80;;;;;;2268576;62;30645;-82
2022/01/08 20:29:57;;;;;;;1.42;0.70;;;17.60;69.70;;;;;;2268822;62;30088;-83
2022/01/08 20:32:23;;;;;;;0.80;0.80;;;17.60;69.80;;;;;;2276001;62;30286;-84
2022/01/08 20:34:49;;;;;;;3.33;1.00;;;17.60;69.70;;;;;;2268558;62;30495;-84
2022/01/08 20:37:15;;;;;;;0.65;0.60;;;17.60;69.80;;;;;;2276150;62;30076;-83
2022/01/08 20:39:41;;;;;;;0.80;0.80;;;17.60;69.70;;;;;;2276155;62;30056;-82
2022/01/08 20:42:08;;;;;;;0.90;0.90;;;17.60;69.70;;;;;;2275937;62;30222;-85
2022/01/08 20:44:35;;;;;;;0.60;0.60;;;17.60;69.70;;;;;;2268296;62;30743;-83
2022/01/08 20:47:05;;;;;;;0.90;0.90;;;17.60;69.70;;;;;;2268379;62;30242;-73
2022/01/08 20:49:31;;;;;;;1.00;1.00;;;17.60;69.80;;;;;;2276017;62;30184;-75
2022/01/08 20:51:57;;;;;;;0.70;0.70;;;17.60;69.80;;;;;;2275963;62;30988;-76
2022/01/08 20:54:23;;;;;;;0.70;0.70;;;17.70;69.90;;;;;;2275598;62;31704;-75
2022/01/08 20:56:49;;;;;;;0.85;0.85;;;17.60;69.80;;;;;;2276840;62;30086;-75
2022/01/08 20:59:15;;;;;;;1.30;1.00;;;17.60;69.70;;;;;;2277076;62;30292;-78
2022/01/08 21:01:41;;;;;;;0.98;0.98;;;17.60;69.80;;;;;;2276968;62;30370;-78
2022/01/08 21:04:07;;;;;;;0.60;0.55;;;17.60;69.80;;;;;;2277209;62;31599;-77
2022/01/08 21:06:33;;;;;;;0.57;0.57;;;17.60;69.80;;;;;;2277252;62;30916;-78
2022/01/08 21:08:59;;;;;;;0.60;0.60;;;17.60;69.80;;;;;;2276832;62;30262;-77
2022/01/08 21:11:25;;;;;;;0.63;0.63;;;17.60;69.80;;;;;;2277121;62;30768;-78
2022/01/08 21:13:57;;;;;;;0.65;0.65;;;17.60;69.80;;;;;;2277085;62;30830;-76
2022/01/08 21:16:22;;;;;;;0.73;0.73;;;17.60;69.80;;;;;;2263017;62;30249;-75
2022/01/08 21:18:50;;;;;;;2.03;0.80;;;17.60;69.80;;;;;;2277192;62;30257;-74
2022/01/08 21:21:16;;;;;;;0.50;0.50;;;17.60;69.80;;;;;;2277010;62;30476;-74
2022/01/08 21:23:42;;;;;;;0.70;0.60;;;17.60;70.60;;;;;;2276830;62;30834;-75
2022/01/08 21:26:08;;;;;;;0.80;0.80;;;17.60;69.80;;;;;;2277020;62;30248;-75
2022/01/08 21:28:33;;;;;;;0.88;0.85;;;17.70;69.80;;;;;;2284095;62;30413;-76
2022/01/08 21:31:01;;;;;;;0.77;0.77;;;17.70;69.90;;;;;;2284941;62;30219;-76
2022/01/08 21:33:31;;;;;;;0.70;0.70;;;17.60;69.70;;;;;;2271210;62;30486;-77
2022/01/08 21:36:01;;;;;;;0.45;0.45;;;17.60;69.70;;;;;;2272801;62;30684;-76
2022/01/08 21:38:34;;;;;;;0.68;0.68;;;17.60;69.80;;;;;;2277326;62;30260;-77
2022/01/08 21:40:59;;;;;;;1.85;0.93;;;17.60;69.70;;;;;;2277047;62;30234;-75
2022/01/08 21:43:25;;;;;;;1.52;0.75;;;17.60;70.10;;;;;;2276789;62;30303;-74
2022/01/08 21:45:51;;;;;;;0.60;0.60;;;17.60;69.70;;;;;;2282838;62;30281;-73
2022/01/08 21:48:17;;;;;;;0.77;0.63;;;17.60;69.70;;;;;;2277794;62;30349;-74
2022/01/08 21:50:44;;;;;;;0.82;0.82;;;17.60;69.70;;;;;;2269616;62;30630;-72
2022/01/08 21:53:10;;;;;;;0.60;0.60;;;17.60;69.70;;;;;;2276907;62;30384;-72
2022/01/08 21:55:36;;;;;;;0.80;0.80;;;17.60;69.70;;;;;;2277348;62;30114;-73
2022/01/08 21:58:03;;;;;;;0.75;0.75;;;17.60;69.80;;;;;;2269757;62;30064;-72
2022/01/08 22:00:29;;;;;;;0.68;0.60;;;17.60;69.60;;;;;;2262833;62;30474;-74
2022/01/08 22:02:55;;;;;;;1.70;0.57;;;17.60;69.60;;;;;;2269404;62;30155;-71
2022/01/08 22:05:21;;;;;;;0.90;0.90;;;17.60;69.60;;;;;;2276990;62;30987;-72
2022/01/08 22:07:47;;;;;;;0.75;0.75;;;17.60;69.60;;;;;;2276802;62;30295;-73
2022/01/08 22:10:13;;;;;;;0.63;0.63;;;17.60;69.60;;;;;;2268023;62;30294;-73
2022/01/08 22:12:42;;;;;;;0.70;0.70;;;17.60;69.60;;;;;;2267817;62;30581;-74
2022/01/08 22:15:08;;;;;;;0.52;0.52;;;17.60;69.60;;;;;;2268584;62;30148;-75
2022/01/08 22:17:34;;;;;;;0.73;0.70;;;17.60;69.60;;;;;;2273175;62;30183;-74
2022/01/08 22:20:05;;;;;;;1.48;0.75;;;17.60;69.60;;;;;;2275934;62;30406;-73
2022/01/08 22:22:31;;;;;;;0.73;0.73;;;17.60;69.50;;;;;;2276737;62;30424;-73
2022/01/08 22:24:57;;;;;;;0.52;0.52;;;17.60;69.60;;;;;;2273321;62;30337;-73
2022/01/08 22:27:23;;;;;;;0.50;0.50;;;17.60;69.60;;;;;;2268186;62;30540;-74
2022/01/08 22:29:49;;;;;;;0.60;0.60;;;17.60;69.60;;;;;;2268502;62;30294;-71
2022/01/08 22:32:15;;;;;;;1.15;0.70;;;17.60;69.60;;;;;;2268601;62;30322;-71
2022/01/08 22:34:40;;;;;;;0.80;0.80;;;17.60;69.50;;;;;;2268369;62;30321;-72
2022/01/08 22:37:08;;;;;;;0.50;0.50;;;17.60;69.50;;;;;;2267915;62;30324;-72
2022/01/08 22:39:34;;;;;;;0.50;0.50;;;17.60;69.50;;;;;;2274369;62;30281;-72
2022/01/08 22:42:00;;;;;;;0.65;0.65;;;17.60;69.60;;;;;;2275732;62;30514;-72
2022/01/08 22:44:26;;;;;;;0.82;0.80;;;17.60;69.50;;;;;;2276757;62;30136;-72
2022/01/08 22:46:52;;;;;;;0.63;0.60;;;17.50;69.50;;;;;;2276082;62;30237;-73
2022/01/08 22:49:18;;;;;;;10.93;1.20;;;17.50;69.50;;;;;;2276495;62;30150;-71
2022/01/08 22:51:47;;;;;;;0.77;0.70;;;17.50;69.60;;;;;;2276101;62;30828;-72
2022/01/08 22:54:17;;;;;;;0.77;0.77;;;17.50;69.60;;;;;;2276413;62;30226;-71
2022/01/08 22:56:42;;;;;;;2.25;1.30;;;17.50;69.60;;;;;;2269492;62;30324;-72
2022/01/08 22:59:08;;;;;;;2.42;1.60;;;17.50;69.60;;;;;;2276692;62;30745;-72
2022/01/08 23:01:35;;;;;;;1.60;1.33;;;17.50;69.60;;;;;;2276422;62;30767;-73
2022/01/08 23:04:03;;;;;;;1.27;1.27;;;17.50;69.70;;;;;;2276699;62;30290;-70
2022/01/08 23:06:34;;;;;;;1.00;1.00;;;17.50;69.70;;;;;;2276559;62;29998;-71
2022/01/08 23:09:01;;;;;;;1.02;1.02;;;17.50;69.70;;;;;;2269333;62;30183;-71
2022/01/08 23:11:30;;;;;;;1.30;1.20;;;17.50;69.60;;;;;;2276550;62;30198;-70
2022/01/08 23:13:56;;;;;;;1.42;1.05;;;17.40;69.60;;;;;;2276623;62;30146;-71
2022/01/08 23:16:22;;;;;;;2.03;1.20;;;17.40;69.70;;;;;;2275860;62;29972;-70
2022/01/08 23:18:48;;;;;;;0.90;0.90;;;17.40;70.40;;;;;;2275389;62;30490;-69
2022/01/08 23:21:15;;;;;;;3.17;1.05;;;17.40;69.50;;;;;;2275543;62;30300;-70
2022/01/08 23:23:41;;;;;;;0.93;0.93;;;17.50;69.60;;;;;;2276421;62;30281;-71
2022/01/08 23:26:07;;;;;;;0.88;0.88;;;17.50;70.20;;;;;;2275987;62;30770;-71
2022/01/08 23:28:33;;;;;;;1.13;0.70;;;17.50;69.50;;;;;;2276618;62;31047;-70
2022/01/08 23:30:59;;;;;;;38.92;18.35;;;17.50;69.40;;;;;;2276192;62;30017;-69
2022/01/08 23:33:25;;;;;;;37.70;9.10;;;17.50;69.40;;;;;;2276364;62;30057;-70
